Aérodrome :







RETROUVEZ-NOUS SUR...

 
LOGIN :

S'inscrire | Disclaimer

   EN    FR    IT 

 









Légende :    VFR   VFR Marginal   IFR   IFR Intensif   IFR Très Intensif
Visi : 
Plafond : 
>= 8 km
>= 3000ft
5 à 8 km
1000 à 3000 ft
1500m à 5 km
500 à 1000 ft
800 à 1500m
200 à 500 ft
< 800m
< 200 ft
Symboles :   Orages  Brouillard  Fortes neiges  Fortes précipitations  Vent > 20 kt






- Altitude de l'aérodrome : 63 ft
- Code IATA : OYK


SBOI - Oiapoque

DERNIER METAR :
  • 242000Z 16004KT 2000 RA BKN005 BKN010 25/24 Q1011

METARs EXPIRÉS :
  • 241900Z 21003KT 9999 BKN007 24/24 Q1011

TAF TAF SBOI
Valide du 24 à 12h jusqu'au 25 à 00h UTC


240900Z 2412/2424 04005KT 9999 SCT020 TX28/2417Z TN24/2424Z
BECMG 2414/2416 03010KT SCT017 FEW025TCU RMK PGU



MET'MAP, la Météo Aéronautique d'un coup d'oeil ! - Copyright ORBIFLY Décembre 2007 - Disclaimer

ORBIFLY MET'MAP TEAM :

Programmation & Développement : Alexandra Zaïnal
Sur une idée originale de : Baudouin d'Aumeries
Assistance à la programmation : Marc-Olivier Méhu
Soutien technique & logistique : Manuel Goepfert

Contact : metmap@orbifly.com




SOURCES & CREDITS :

   NOAA